logo
App data

Civil War: Battle of Petersburg

Crush the Confederates near Petersburg and Richmond in 1864. Bring peace to a nation divided.
Store | Hub | SteamDB
Developer: Cult Software Publisher: Cult Software
Genre: Strategy
Languages: English
Tags: Strategy (25), Wargame (16), War (13), America (13), Hex Grid (12), Local Co-Op (11), Turn-Based (11), Historical (11), Turn-Based Combat (10)
Category: Single-player, Multi-player, Shared/Split Screen, Steam Achievements, Steam Trading Cards, Steam Leaderboards, Remote Play Together
Release date: Feb 8, 2017
Price: $0.99
Old userscore: 74% Owners: 20,000 .. 50,000
Followers: 464
Peak concurrent players yesterday: 1
Playtime total: 03:30 (average) 03:39 (median)

Steam Spy is still in beta, so expect major bugs.

Owners data:

Access restricted.

This feature is only available to users with special access rights. Sorry.

If you want to proceed, you need to register or log in first and then back Steam Spy on Patreon. Look for Indie or Pro pledge.

Don't forget to use the same email as on Steam Spy!

Audience in 2 weeks:

Access restricted.

This feature is only available to users with special access rights. Sorry.

If you want to proceed, you need to register or log in first and then back Steam Spy on Patreon. Look for Indie or Pro pledge.

Don't forget to use the same email as on Steam Spy!

Peak daily concurrent players:

CCU data courtesy of SteamDB. Used with permission.

Hourly concurrent players:

Followers over time

Access restricted.

This feature is only available to users with special access rights. Sorry.

If you want to proceed, you need to register or log in first and then back Steam Spy on Patreon. Look for Indie or Pro pledge.

Don't forget to use the same email as on Steam Spy!

Views for top 50 videos on YouTube for this game:

Games similar to this one:

# Game Release date
Price
Score rank
(Userscore / Metascore)
Owners
Players
Playtime (Median)
1 Curse of the Crescent Isle DX Aug 21, 2015 $0.99N/A (N/A)0 .. 20,0000%00:00 (00:00)
2 Dangerous Waters Feb 7, 2006 $14.99N/A (N/A/82%)50,000 .. 100,0000%00:00 (00:00)
3 Kick Ass Commandos Nov 17, 2016 $9.99N/A (N/A)20,000 .. 50,0000%00:00 (00:00)
4 Warhammer 40,000: Dawn of War – Winter Assault Jan 1, 2006 $3.24N/A (N/A)500,000 .. 1,000,0000%00:00 (00:00)
5 Skyshine's BEDLAM Sep 16, 2015 $19.99N/A (N/A/67%)50,000 .. 100,0000%00:00 (00:00)
6 Act of War: Direct Action Mar 14, 2005 $2.99N/A (N/A/82%)50,000 .. 100,0000%00:00 (00:00)
7 Assassin’s Creed Chronicles: India Jan 12, 2016 $9.99N/A (N/A)50,000 .. 100,0000%00:00 (00:00)
8 Supreme Commander Feb 20, 2007 $12.99N/A (N/A/86%)1,000,000 .. 2,000,0000%00:00 (00:00)
9 Close Combat - Panthers in the Fog Nov 19, 2012 $39.99N/A (N/A)0 .. 20,0000%00:00 (00:00)
10 Fleet Command May 15, 1999 $9.99N/A (N/A)20,000 .. 50,0000%00:00 (00:00)
11 Nightside Apr 2, 2015 $2.49N/A (N/A)20,000 .. 50,0000%00:00 (00:00)
12 BC Kings Sep 15, 2008 $0.99N/A (N/A)20,000 .. 50,0000%00:00 (00:00)
13 Apocalypse: Party's Over May 30, 2016 N/AN/A (N/A)0 .. 20,0000%00:00 (00:00)
14 BloodRayne Sep 9, 2003 $9.99N/A (N/A/65%)50,000 .. 100,0000%00:00 (00:00)
15 Heaven Forest NIGHTS Mar 13, 2017 $0.99N/A (N/A)500,000 .. 1,000,0000%00:00 (00:00)
16 Port Royale 2 Apr 30, 2004 $4.99N/A (N/A/75%)50,000 .. 100,0000%00:00 (00:00)
17 Adventure in the Tower of Flight Dec 23, 2015 $4.99N/A (N/A)0 .. 20,0000%00:00 (00:00)
18 CivCity: Rome Jul 24, 2006 $9.99N/A (N/A/67%)50,000 .. 100,0000%00:00 (00:00)
19 Chronostorm: Siberian Border Apr 2, 2009 $0.99N/A (N/A)0 .. 20,0000%00:00 (00:00)
20 Hunting Unlimited 2008 Sep 1, 2007 $9.99N/A (N/A)20,000 .. 50,0000%00:00 (00:00)
21 Pongo May 14, 2015 $0.99N/A (N/A)100,000 .. 200,0000%00:00 (00:00)
22 Civilization IV: Warlords Apr 6, 2007 $4.99N/A (N/A/84%)1,000,000 .. 2,000,0000%00:00 (00:00)
23 Solar Shifter EX Sep 11, 2015 $4.99N/A (N/A)20,000 .. 50,0000%00:00 (00:00)
24 Heroes of Might & Magic V: Hammers of Fate Nov 14, 2006 $9.99N/A (N/A/66%)50,000 .. 100,0000%00:00 (00:00)
25 Blacksea Odyssey Jun 1, 2016 $9.99N/A (N/A/74%)20,000 .. 50,0000%00:00 (00:00)
26 Ghost Master Aug 23, 2003 $4.99N/A (N/A/81%)100,000 .. 200,0000%00:00 (00:00)
27 Devils & Demons Oct 6, 2015 $9.99N/A (N/A)20,000 .. 50,0000%00:00 (00:00)
28 Nuclear Dawn Sep 26, 2011 $9.99N/A (N/A/71%)200,000 .. 500,0000%00:00 (00:00)
29 Riddled Corpses Jun 2, 2015 $7.99N/A (N/A)20,000 .. 50,0000%00:00 (00:00)
30 Making History: The Calm & the Storm Mar 13, 2007 $4.99N/A (N/A/70%)50,000 .. 100,0000%00:00 (00:00)
31 Redemption: Saints And Sinners Nov 18, 2016 $0.99N/A (N/A)50,000 .. 100,0000%00:00 (00:00)
32 Earth Defense Force: Insect Armageddon Dec 14, 2011 $9.99N/A (N/A/69%)50,000 .. 100,0000%00:00 (00:00)
33 Jim Power -The Lost Dimension Dec 10, 1993 $4.99N/A (N/A)0 .. 20,0000%00:00 (00:00)
34 Lost Planet: Extreme Condition Jun 26, 2007 $14.99N/A (N/A/66%)200,000 .. 500,0000%00:00 (00:00)
35 Sky Gamblers: Storm Raiders Jan 7, 2015 $9.99N/A (N/A)20,000 .. 50,0000%00:00 (00:00)
36 Gold Rush! Classic Dec 23, 1988 $1.01N/A (N/A)200,000 .. 500,0003.23%00:01 (00:00)
37 Blue Estate The Game Apr 8, 2015 $12.99N/A (N/A/59%)50,000 .. 100,0000%00:00 (00:00)
38 The Nightmare Cooperative Jul 16, 2014 $4.99N/A (N/A)50,000 .. 100,0000%00:00 (00:00)
39 World War 2: Time of Wrath Jun 15, 2009 $0.84N/A (N/A)20,000 .. 50,0000%00:00 (00:00)
40 Advanced Tactics Gold Apr 12, 2011 $29.99N/A (N/A)0 .. 20,0000%00:00 (00:00)
41 Heavy Fire: Afghanistan Aug 15, 2014 $2.99N/A (N/A)50,000 .. 100,0000%00:00 (00:00)
42 The Way May 20, 2016 $14.99N/A (N/A/67%)100,000 .. 200,0000%00:00 (00:00)
43 Wildlife Park 2 - Crazy Zoo Mar 30, 2007 $2.79N/A (N/A)0 .. 20,0000%00:00 (00:00)
44 Battle Mages: Sign of Darkness Apr 13, 2006 $4.99N/A (N/A)20,000 .. 50,0000%00:00 (00:00)
45 Civil War II Sep 17, 2013 $39.99N/A (N/A)20,000 .. 50,0000%00:00 (00:00)
46 Spirits of Xanadu Mar 26, 2015 $4.99N/A (N/A)50,000 .. 100,0000%00:00 (00:00)
47 Battle Academy 2: Eastern Front Sep 12, 2014 $39.99N/A (N/A/78%)0 .. 20,0000%00:00 (00:00)
48 To End All Wars Aug 29, 2014 $39.99N/A (N/A/71%)0 .. 20,0000%00:00 (00:00)
49 Will Fight for Food: Super Actual Sellout: Game of the Hour Apr 22, 2015 $4.99N/A (N/A)0 .. 20,0000%00:00 (00:00)
50 Warhammer 40,000: Armageddon Nov 26, 2014 $7.99N/A (N/A/68%)50,000 .. 100,0000%00:00 (00:00)
51 Nux Dec 26, 2006 $6.99N/A (N/A)100,000 .. 200,0000%00:00 (00:00)
52 Dominions 3: The Awakening Sep 10, 2013 $19.99N/A (N/A/82%)20,000 .. 50,0000%00:00 (00:00)
53 Aegis Oct 6, 2016 $2.99N/A (N/A)20,000 .. 50,0000%00:00 (00:00)
54 Wanderlust Adventures Aug 10, 2015 $9.99N/A (N/A)20,000 .. 50,0000%00:00 (00:00)
55 The Superfluous May 19, 2017 $1.99N/A (N/A)0 .. 20,0000%00:00 (00:00)
56 Zafehouse: Diaries Sep 6, 2013 $1.99N/A (N/A)50,000 .. 100,0000%00:00 (00:00)
57 Lethal VR Nov 8, 2016 $3.74N/A (N/A/66%)0 .. 20,0000%00:00 (00:00)
58 Ittle Dew Jul 23, 2013 $9.99N/A (N/A/67%)100,000 .. 200,0000%00:00 (00:00)
59 ROD: Revolt Of Defense Aug 12, 2016 $0.99N/A (N/A)20,000 .. 50,0000%00:00 (00:00)
60 Chainsaw Warrior Oct 7, 2013 $0.99N/A (N/A)100,000 .. 200,0000%00:00 (00:00)
61 Voodoo Vince: Remastered Apr 18, 2017 $14.99N/A (N/A/63%)20,000 .. 50,0000%00:00 (00:00)
62 CastleStorm Jul 29, 2013 $9.99N/A (N/A/73%)100,000 .. 200,0007.14%00:01 (00:00)
63 Battle Time Sep 29, 2016 $0.99N/A (N/A)50,000 .. 100,0000%00:00 (00:00)
64 Master Reboot Oct 29, 2013 $12.99N/A (N/A/59%)50,000 .. 100,0000%00:00 (00:00)
65 Mysterium: A Psychic Clue Game Jan 12, 2017 $6.99N/A (N/A)50,000 .. 100,0000%00:00 (00:00)
66 In Verbis Virtus Apr 3, 2015 $19.99N/A (N/A)50,000 .. 100,0000%00:00 (00:00)
67 BitMaster Oct 12, 2016 $2.99N/A (N/A)100,000 .. 200,0000%00:00 (00:00)
68 Anomaly Warzone Earth Mobile Campaign Nov 6, 2013 $4.99N/A (N/A)100,000 .. 200,0006.67%02:24 (01:31)
69 Imperium Galactica Mar 1, 1997 $4.99N/A (N/A)0 .. 20,0000%00:00 (00:00)
70 Divinity: Dragon Commander Aug 6, 2013 $39.99N/A (N/A)200,000 .. 500,0000%00:00 (00:00)
71 Zombo Buster Rising Oct 2, 2016 $1.99N/A (N/A)20,000 .. 50,0000%00:00 (00:00)
72 Dusty Revenge:Co-Op Edition Feb 17, 2014 $14.99N/A (N/A)50,000 .. 100,0000%00:00 (00:00)
73 rooMaze Mar 3, 2017 $1.99N/A (N/A)100,000 .. 200,0000%00:00 (00:00)
74 Sid Meier’s Ace Patrol Aug 27, 2013 $4.99N/A (N/A)200,000 .. 500,0000%00:00 (00:00)
75 MinosMaze - The Minotaur's Labyrinth May 1, 2017 $4.99N/A (N/A)0 .. 20,0000%00:00 (00:00)
76 Hot Tin Roof: The Cat That Wore A Fedora Feb 20, 2015 $14.99N/A (N/A/66%)100,000 .. 200,0000%00:00 (00:00)
77 Western 1849 Reloaded Feb 10, 2017 $3.99N/A (N/A)0 .. 20,0000%00:00 (00:00)
78 VelocityUltra Dec 12, 2013 $9.99N/A (N/A)20,000 .. 50,0000%00:00 (00:00)
79 Toadled Sep 22, 2016 $0.99N/A (N/A)50,000 .. 100,0000%00:00 (00:00)
80 rymdkapsel Jan 30, 2014 $7.99N/A (N/A/77%)20,000 .. 50,0000%00:00 (00:00)
81 Afghanistan '11 Mar 23, 2017 $29.99N/A (N/A)0 .. 20,0000%00:00 (00:00)
82 ENSLAVED: Odyssey to the West Premium Edition Oct 24, 2013 $19.99N/A (N/A/70%)200,000 .. 500,0003.13%00:01 (00:00)
83 reconquest Dec 16, 2016 $11.99N/A (N/A)0 .. 20,0000%00:00 (00:00)
84 Bleed Jul 3, 2013 $4.99N/A (N/A)100,000 .. 200,0000%00:00 (00:00)
85 Wild Guns Reloaded Jul 11, 2017 $14.99N/A (N/A)20,000 .. 50,0000%00:00 (00:00)
86 Pike and Shot : Campaigns Aug 13, 2015 $39.99N/A (N/A)0 .. 20,0000%00:00 (00:00)
87 Gnumz: Masters of Defense Dec 21, 2015 $4.99N/A (N/A)100,000 .. 200,0000%00:00 (00:00)
88 Tcheco in the Castle of Lucio Jun 22, 2015 $0.99N/A (N/A)50,000 .. 100,0000%00:00 (00:00)
89 Spooky Cats Jun 4, 2015 $2.99N/A (N/A)20,000 .. 50,0000%00:00 (00:00)
90 Valley Aug 24, 2016 $14.99N/A (N/A)200,000 .. 500,0000%00:00 (00:00)
91 Explosionade Sep 23, 2015 $3.99N/A (N/A)0 .. 20,0000%00:00 (00:00)
92 Incandescent Jun 30, 2015 $0.99N/A (N/A)20,000 .. 50,0000%00:00 (00:00)
93 Revolution Under Siege Gold Jul 2, 2015 $24.99N/A (N/A)20,000 .. 50,0000%00:00 (00:00)
94 Hydraulic Empire Jul 31, 2015 $7.99N/A (N/A)0 .. 20,0000%00:00 (00:00)
95 Defend The Highlands Nov 6, 2015 $9.99N/A (N/A)100,000 .. 200,0000%00:00 (00:00)
96 Kidnapped Aug 4, 2015 $2.99N/A (N/A)100,000 .. 200,0000%00:00 (00:00)
97 Superstatic Sep 15, 2015 $4.99N/A (N/A)0 .. 20,0000%00:00 (00:00)
98 Cross of the Dutchman Sep 10, 2015 $8.99N/A (N/A/59%)20,000 .. 50,0000%00:00 (00:00)
99 Island Defense Jul 23, 2015 $1.99N/A (N/A)50,000 .. 100,0000%00:00 (00:00)
100 Zombie Party Jun 10, 2016 $9.99N/A (N/A)100,000 .. 200,0000%00:00 (00:00)
101 Biodrone Battle Jul 16, 2015 $1.99N/A (N/A)50,000 .. 100,0000%00:00 (00:00)
102 Heavy Fire: Shattered Spear Oct 23, 2015 $3.99N/A (N/A)0 .. 20,0000%00:00 (00:00)
103 Hell Nov 13, 2014 $29.99N/A (N/A)0 .. 20,0000%00:00 (00:00)
104 Platypus II Aug 15, 2014 $6.99N/A (N/A)200,000 .. 500,0009.09%00:02 (00:01)
105 Legions of Steel Jul 16, 2015 $19.99N/A (N/A/64%)0 .. 20,0000%00:00 (00:00)
106 Gold Rush! Anniversary Nov 7, 2014 $2.03N/A (N/A)50,000 .. 100,0005.56%00:01 (00:00)
107 Khet 2.0 Oct 1, 2014 $9.99N/A (N/A)50,000 .. 100,0000%00:00 (00:00)
108 There Came an Echo Feb 24, 2015 $14.99N/A (N/A/58%)20,000 .. 50,0000%00:00 (00:00)
109 Zoo Rampage Jul 9, 2014 $3.99N/A (N/A)20,000 .. 50,0000%00:00 (00:00)
110 Deadlings: Rotten Edition Nov 11, 2014 $3.99N/A (N/A)50,000 .. 100,0000%00:00 (00:00)
111 Alea Jacta Est Sep 27, 2012 $24.99N/A (N/A)50,000 .. 100,0000%00:00 (00:00)
112 Magnifico Dec 2, 2014 $4.99N/A (N/A)0 .. 20,0000%00:00 (00:00)
113 Supreme Ruler Ultimate Oct 17, 2014 $19.99N/A (N/A)50,000 .. 100,0000%00:00 (00:00)
114 Toren May 11, 2015 $9.99N/A (N/A/57%)100,000 .. 200,0000%00:00 (00:00)
115 Foresight Nov 28, 2014 $4.99N/A (N/A)0 .. 20,0000%00:00 (00:00)
116 Wickland Feb 6, 2015 $0.99N/A (N/A)50,000 .. 100,0000%00:00 (00:00)
117 Stonerid Dec 18, 2013 $4.99N/A (N/A)20,000 .. 50,0000%00:00 (00:00)
118 War, the Game Jan 12, 2015 $6.99N/A (N/A/65%)20,000 .. 50,0000%00:00 (00:00)
119 Prophour23 Oct 22, 2014 $9.99N/A (N/A)20,000 .. 50,0000%00:00 (00:00)
120 Major Mayhem Feb 24, 2014 $4.99N/A (N/A)20,000 .. 50,0000%00:00 (00:00)
121 Silent Storm Gold Edition Sep 9, 2004 $9.99N/A (N/A/83%)200,000 .. 500,0000%00:00 (00:00)
122 Defence to death May 11, 2017 $5.99N/A (N/A)20,000 .. 50,0000%00:00 (00:00)
123 Platformines Mar 28, 2014 $9.99N/A (N/A/67%)50,000 .. 100,0000%00:00 (00:00)
124 PixelJunk Shooter Nov 11, 2013 $8.99N/A (N/A/73%)100,000 .. 200,0000%00:00 (00:00)
125 Tank Destroyer Mar 9, 2017 $0.99N/A (N/A)50,000 .. 100,0000%00:00 (00:00)
126 Deadly 30 Jan 8, 2014 $4.99N/A (N/A)100,000 .. 200,0000%00:00 (00:00)
127 Jagged Alliance Flashback Oct 21, 2014 $19.99N/A (N/A)50,000 .. 100,0000%00:00 (00:00)
128 Sudden Strike 2 Gold Aug 30, 2002 $5.99N/A (N/A)50,000 .. 100,0000%00:00 (00:00)
129 Meridian: New World Apr 4, 2014 $6.99N/A (N/A/43%)100,000 .. 200,0000%00:00 (00:00)
130 Tank Operations: European Campaign Nov 22, 2013 N/AN/A (N/A)20,000 .. 50,0000%00:00 (00:00)
131 Ground Pounders Jul 15, 2014 $4.99N/A (N/A)0 .. 20,0000%00:00 (00:00)
132 Pixel Boy and the Ever Expanding Dungeon May 30, 2014 $0.99N/A (N/A)20,000 .. 50,0000%00:00 (00:00)
133 Gun Metal Sep 23, 2003 $2.99N/A (N/A)200,000 .. 500,0000%00:00 (00:00)
134 SPACECOM Sep 17, 2014 $9.99N/A (N/A/68%)100,000 .. 200,0000%00:00 (00:00)
135 Antisquad Oct 31, 2014 $5.99N/A (N/A)50,000 .. 100,0000%00:00 (00:00)
136 Wyv and Keep: The Temple of the Lost Idol Aug 8, 2014 $14.99N/A (N/A)0 .. 20,0000%00:00 (00:00)
137 Meltdown Jun 5, 2014 $6.99N/A (N/A)100,000 .. 200,0000%00:00 (00:00)
138 Guns n Zombies Oct 30, 2014 $7.99N/A (N/A)100,000 .. 200,0000%00:00 (00:00)
139 MoonBase Commander Aug 13, 2002 $5.99N/A (N/A/77%)20,000 .. 50,0000%00:00 (00:00)
140 Sword of the Stars II: Enhanced Edition Nov 30, 2012 $19.99N/A (N/A/65%)100,000 .. 200,0000%00:00 (00:00)
141 Tic-Toc-Tower Sep 28, 2015 $2.99N/A (N/A)0 .. 20,0000%00:00 (00:00)
142 Elven Legacy Apr 7, 2009 $4.99N/A (N/A/71%)50,000 .. 100,0000%00:00 (00:00)
143 Infection: Humanity's Last Gasp May 26, 2016 $9.99N/A (N/A)0 .. 20,0000%00:00 (00:00)
144 The Haunted: Hells Reach Oct 24, 2011 $8.99N/A (N/A/51%)50,000 .. 100,0000%00:00 (00:00)
145 Rubber and Lead Sep 4, 2015 $4.99N/A (N/A)50,000 .. 100,0000%00:00 (00:00)
146 Supreme Ruler 2020 Gold Jun 17, 2008 $9.99N/A (N/A/65%)20,000 .. 50,0000%00:00 (00:00)
147 Pharaonic Apr 28, 2016 $14.99N/A (N/A)0 .. 20,0000%00:00 (00:00)
148 Dead Rising 2: Off the Record Oct 11, 2011 $19.99N/A (N/A/66%)200,000 .. 500,0000%00:00 (00:00)
149 Anarcute Jul 12, 2016 $14.99N/A (N/A/79%)0 .. 20,0000%00:00 (00:00)
150 Majesty Gold HD Mar 23, 2001 $9.99N/A (N/A)100,000 .. 200,0000%00:00 (00:00)
151 After The End: The Harvest Jun 2, 2017 $4.99N/A (N/A)20,000 .. 50,0000%00:00 (00:00)
152 Star Wolves 3: Civil War Mar 2, 2010 $4.99N/A (N/A)100,000 .. 200,0000%00:00 (00:00)
153 TRON RUN/r Feb 16, 2016 $19.99N/A (N/A)20,000 .. 50,0000%00:00 (00:00)
154 Caster Mar 19, 2009 $1.99N/A (N/A)200,000 .. 500,0003.45%00:09 (00:03)
155 Vampire of the Sands Jul 17, 2015 $4.99N/A (N/A)20,000 .. 50,0000%00:00 (00:00)
156 Theatre of War 2: Africa 1943 Apr 24, 2009 $4.99N/A (N/A/63%)50,000 .. 100,0000%00:00 (00:00)
157 Toy Odyssey: The Lost and Found Sep 20, 2016 $14.99N/A (N/A/66%)20,000 .. 50,0000%00:00 (00:00)
158 LEGO Indiana Jones 2: The Adventure Continues Feb 18, 2010 $19.99N/A (N/A/66%)50,000 .. 100,0000%00:00 (00:00)
159 Rise: Battle Lines Nov 17, 2015 N/AN/A (N/A)0 .. 20,0000%00:00 (00:00)
160 Theatre of War 2: Kursk 1943 Mar 9, 2010 $4.99N/A (N/A)50,000 .. 100,0000%00:00 (00:00)
161 WARSHIFT Oct 12, 2016 $9.99N/A (N/A)20,000 .. 50,0000%00:00 (00:00)
162 Disciples III - Renaissance Steam Special Edition Jul 16, 2010 $14.99N/A (N/A/56%)200,000 .. 500,0000%00:00 (00:00)
163 Cashtronauts Aug 31, 2016 $2.99N/A (N/A)0 .. 20,0000%00:00 (00:00)
164 Making History II: The War of the World Jun 22, 2010 $14.99N/A (N/A/38%)20,000 .. 50,0000%00:00 (00:00)
165 CTU: Counter Terrorism Unit Apr 22, 2016 $4.99N/A (N/A)20,000 .. 50,0000%00:00 (00:00)
166 Chaser Aug 22, 2003 $4.99N/A (N/A/66%)100,000 .. 200,0000%00:00 (00:00)
167 Sol 0: Mars Colonization Jan 15, 2016 $3.99N/A (N/A)20,000 .. 50,0000%00:00 (00:00)
168 Armada 2526 Jun 10, 2010 $14.99N/A (N/A/66%)0 .. 20,0000%00:00 (00:00)
169 Ace of Protectors Jun 27, 2016 $1.99N/A (N/A)20,000 .. 50,0000%00:00 (00:00)
170 Rush for Berlin Gold Oct 29, 2009 $4.99N/A (N/A/76%)20,000 .. 50,0000%00:00 (00:00)
171 Mold on Pizza Sep 25, 2015 $5.99N/A (N/A)20,000 .. 50,0000%00:00 (00:00)
172 The Seven Years War (1756-1763) Oct 30, 2015 $19.99N/A (N/A)20,000 .. 50,0000%00:00 (00:00)
173 King Arthur - The Role-playing Wargame Nov 24, 2009 $9.99N/A (N/A)200,000 .. 500,0000%00:00 (00:00)
174 Desert Ashes Nov 10, 2014 $4.99N/A (N/A)20,000 .. 50,0000%00:00 (00:00)
175 Survivor Squad: Gauntlets Nov 16, 2015 $4.99N/A (N/A)20,000 .. 50,0000%00:00 (00:00)
176 Run or Die Dec 11, 2014 $4.99N/A (N/A)20,000 .. 50,0000%00:00 (00:00)
177 PixelJunk Shooter Ultimate Oct 21, 2015 $9.99N/A (N/A)20,000 .. 50,00025%00:01 (00:00)
178 The Hive Aug 25, 2016 $14.99N/A (N/A)20,000 .. 50,0000%00:00 (00:00)
179 Battle Fleet 2 Nov 20, 2014 $14.99N/A (N/A)20,000 .. 50,0000%00:00 (00:00)
180 Ironcast Mar 26, 2015 $2.99N/A (N/A/75%)20,000 .. 50,0000%00:00 (00:00)
181 Kaiju-A-GoGo Apr 23, 2015 $9.99N/A (N/A)20,000 .. 50,0000%00:00 (00:00)
182 7th Legion Jan 1, 1997 $6.99N/A (N/A)0 .. 20,0000%00:00 (00:00)
183 Fortified Feb 3, 2016 $14.99N/A (N/A)500,000 .. 1,000,0000.72%01:18 (00:26)
184 Frozen Synapse Prime Nov 14, 2014 $24.99N/A (N/A/83%)100,000 .. 200,0000%00:00 (00:00)
185 Bet On Soldier Dec 5, 2014 $7.99N/A (N/A)100,000 .. 200,00014.29%00:02 (00:00)
186 Robotex Nov 19, 2014 $4.99N/A (N/A)200,000 .. 500,0000%00:00 (00:00)
187 Vietnam ‘65 Mar 5, 2015 $9.99N/A (N/A/81%)20,000 .. 50,0000%00:00 (00:00)
188 Flashpoint Campaigns: Red Storm Player's Edition Oct 9, 2013 $49.99N/A (N/A)0 .. 20,0000%00:00 (00:00)
189 Bloodsports.TV Mar 30, 2015 $9.99N/A (N/A/69%)50,000 .. 100,0000%00:00 (00:00)
190 Executive Assault Jul 17, 2015 $12.99N/A (N/A)50,000 .. 100,0000%00:00 (00:00)
191 RIVE: Wreck, Hack, Die, Retry! Sep 13, 2016 $14.99N/A (N/A)100,000 .. 200,0000%00:00 (00:00)
192 Shadow Blade: Reload Aug 10, 2015 $9.99N/A (N/A/70%)20,000 .. 50,0000%00:00 (00:00)
193 Interplanetary May 12, 2015 N/AN/A (N/A)100,000 .. 200,0000%00:00 (00:00)
194 The Last Federation Apr 18, 2014 $19.99N/A (N/A/72%)50,000 .. 100,0000%00:00 (00:00)
195 Making History: The Great War Jan 29, 2015 $29.99N/A (N/A)20,000 .. 50,0000%00:00 (00:00)
196 Graviteam Tactics: Operation Star Mar 22, 2012 $29.99N/A (N/A)50,000 .. 100,0000%00:00 (00:00)
197 Abalone Apr 23, 2014 $6.99N/A (N/A)0 .. 20,0000%00:00 (00:00)
198 Z Steel Soldiers Aug 1, 2014 $12.99N/A (N/A)50,000 .. 100,0000%00:00 (00:00)
199 Devil's Dare 悪魔の挑戦 Oct 21, 2014 $12.99N/A (N/A)20,000 .. 50,0000%00:00 (00:00)
200 Z Jul 4, 2014 $6.99N/A (N/A)100,000 .. 200,0000%00:00 (00:00)
201 Battlepillars Gold Edition Apr 28, 2014 $4.99N/A (N/A)20,000 .. 50,0000%00:00 (00:00)
202 Battle Group 2 Jun 13, 2014 $7.99N/A (N/A)50,000 .. 100,0000%00:00 (00:00)
203 Ubersoldier II Jul 22, 2008 $9.99N/A (N/A/62%)100,000 .. 200,0000%00:00 (00:00)
204 Albedo: Eyes from Outer Space Apr 10, 2015 $14.99N/A (N/A/66%)20,000 .. 50,0000%00:00 (00:00)
205 Woolfe - The Red Hood Diaries Mar 17, 2015 $9.99N/A (N/A/55%)100,000 .. 200,0000%00:00 (00:00)
206 Panzer Tactics HD May 22, 2014 $2.49N/A (N/A/69%)20,000 .. 50,0000%00:00 (00:00)
207 Ku: Shroud of the Morrigan Mar 17, 2014 $4.99N/A (N/A)20,000 .. 50,0000%00:00 (00:00)
208 Monday Night Combat Jan 24, 2011 $4.99N/A (N/A/82%)200,000 .. 500,0000%00:00 (00:00)
209 Codename: Panzers, Phase Two Jul 21, 2005 $14.99N/A (N/A/80%)0 .. 20,0000%00:00 (00:00)
210 Greed Corp Dec 10, 2010 $9.99N/A (N/A/76%)200,000 .. 500,0000%00:00 (00:00)
211 Reverse Crawl Sep 24, 2015 $1.19N/A (N/A)50,000 .. 100,0000%00:00 (00:00)
212 Swords and Soldiers HD Dec 2, 2010 $9.99N/A (N/A)200,000 .. 500,0000%00:00 (00:00)
213 Legend (1994) Apr 1, 1994 $4.99N/A (N/A)0 .. 20,0000%00:00 (00:00)
214 Commander: Conquest of the Americas Jul 30, 2010 $9.99N/A (N/A/68%)50,000 .. 100,0000%00:00 (00:00)
215 The Juicer Sep 6, 2012 $0.99N/A (N/A)50,000 .. 100,0000%00:00 (00:00)
216 Fantasy Wars Aug 6, 2010 $4.99N/A (N/A/67%)50,000 .. 100,0000%00:00 (00:00)
217 Goblin Defenders: Steel‘n’ Wood Aug 21, 2013 $2.99N/A (N/A)20,000 .. 50,0000%00:00 (00:00)
218 Atom Zombie Smasher Mar 14, 2011 $9.99N/A (N/A/75%)200,000 .. 500,0005.56%00:01 (00:00)
219 The Aquatic Adventure of the Last Human Jan 19, 2016 $9.99N/A (N/A/76%)20,000 .. 50,0000%00:00 (00:00)
220 Men of War: Vietnam Sep 8, 2011 $7.99N/A (N/A/68%)200,000 .. 500,0000%00:00 (00:00)
221 Gurgamoth Feb 16, 2016 $9.99N/A (N/A)20,000 .. 50,0000%00:00 (00:00)
222 Patrician IV Sep 17, 2010 $14.99N/A (N/A/66%)100,000 .. 200,0000%00:00 (00:00)
223 The Political Machine 2016 Feb 4, 2016 N/AN/A (N/A)50,000 .. 100,0000%00:00 (00:00)
224 Carrier Command: Gaea Mission Sep 28, 2012 $32.99N/A (N/A/60%)200,000 .. 500,0009.09%00:12 (00:04)
225 Into the Void Dec 4, 2015 $1.99N/A (N/A)20,000 .. 50,0000%00:00 (00:00)
226 Dungeons Feb 10, 2011 $9.99N/A (N/A/65%)200,000 .. 500,0000%00:00 (00:00)
227 Crush Your Enemies Jul 13, 2016 $9.99N/A (N/A/63%)20,000 .. 50,0000%00:00 (00:00)
228 Star Ruler Sep 20, 2010 $7.99N/A (N/A)100,000 .. 200,0000%00:00 (00:00)
229 Elite vs. Freedom May 31, 2016 $0.84N/A (N/A)0 .. 20,0000%00:00 (00:00)
230 A Game of Thrones - Genesis Sep 29, 2011 $9.99N/A (N/A)100,000 .. 200,0000%00:00 (00:00)
231 Knight Adventure Oct 15, 2015 $0.99N/A (N/A)50,000 .. 100,0000%00:00 (00:00)
232 Pride of Nations Jun 8, 2011 $19.99N/A (N/A/70%)20,000 .. 50,0000%00:00 (00:00)
233 The Legend of Dark Witch Dec 1, 2015 $4.99N/A (N/A)20,000 .. 50,0000%00:00 (00:00)
234 Age of Wonders Oct 2010 $5.99N/A (N/A)100,000 .. 200,0000%00:00 (00:00)
235 Run Rabbit Run Mar 31, 2016 $3.99N/A (N/A)0 .. 20,0000%00:00 (00:00)
236 Sengoku Sep 15, 2011 $9.99N/A (N/A/70%)100,000 .. 200,0000%00:00 (00:00)
237 Militia Dec 2, 2015 $5.99N/A (N/A)0 .. 20,0000%00:00 (00:00)
238 Age of Wonders Shadow Magic Oct 2010 $9.99N/A (N/A/82%)100,000 .. 200,0000%00:00 (00:00)
239 Galaxy Admirals Jan 17, 2017 $1.99N/A (N/A)100,000 .. 200,0000%00:00 (00:00)
240 RISK: Factions Mar 8, 2011 $9.99N/A (N/A/77%)100,000 .. 200,0000%00:00 (00:00)
241 Avaris 2: The Return of the Empress Dec 15, 2015 $7.99N/A (N/A)0 .. 20,0000%00:00 (00:00)
242 Outcast 1.1 Dec 18, 2014 $5.99N/A (N/A)50,000 .. 100,0000%00:00 (00:00)
243 Shadows of War Jan 2, 2015 $2.99N/A (N/A)20,000 .. 50,0000%00:00 (00:00)
244 Deadnaut Nov 27, 2014 $9.99N/A (N/A)0 .. 20,0000%00:00 (00:00)
245 Tallowmere Mar 3, 2015 $3.99N/A (N/A)20,000 .. 50,0000%00:00 (00:00)
246 Velocity 2X Aug 19, 2015 $19.99N/A (N/A)50,000 .. 100,0000%00:00 (00:00)
247 Colonial Conquest Jul 28, 2015 $9.99N/A (N/A)20,000 .. 50,0000%00:00 (00:00)
248 Star Hammer: The Vanguard Prophecy Jun 4, 2015 $19.99N/A (N/A/69%)0 .. 20,0000%00:00 (00:00)
249 Stay Dead Evolution Feb 4, 2015 $5.99N/A (N/A)20,000 .. 50,0000%00:00 (00:00)
250 Decisive Campaigns: The Blitzkrieg from Warsaw to Paris Aug 26, 2010 $39.99N/A (N/A)0 .. 20,0000%00:00 (00:00)
251 Super Cyborg Jul 8, 2015 $4.99N/A (N/A)20,000 .. 50,0000%00:00 (00:00)
252 Strategy & Tactics: Wargame Collection Apr 22, 2016 $9.99N/A (N/A)50,000 .. 100,0000%00:00 (00:00)
253 Dustoff Heli Rescue Mar 6, 2015 $3.99N/A (N/A)20,000 .. 50,0000%00:00 (00:00)
254 Urja Jan 9, 2015 $9.99N/A (N/A)20,000 .. 50,0000%00:00 (00:00)
255 Lux Delux May 1, 2015 $3.39N/A (N/A)50,000 .. 100,0000%00:00 (00:00)
256 Death Ray Manta SE Sep 17, 2015 $1.99N/A (N/A)20,000 .. 50,0000%00:00 (00:00)
257 Samudai Feb 9, 2015 $0.99N/A (N/A)50,000 .. 100,0000%00:00 (00:00)
258 Headlander Jul 25, 2016 $19.99N/A (N/A/74%)100,000 .. 200,0000%00:00 (00:00)
259 Strategic War in Europe Mar 21, 2014 $14.99N/A (N/A)20,000 .. 50,0000%00:00 (00:00)
260 Strike Suit Zero: Director's Cut Apr 8, 2014 $19.99N/A (N/A)50,000 .. 100,0000%00:00 (00:00)
261 The Campaign Series: Fall Weiss May 30, 2014 $14.99N/A (N/A)20,000 .. 50,0000%00:00 (00:00)
262 Perimeter: Emperor's Testament Aug 29, 2006 $3.99N/A (N/A/72%)20,000 .. 50,0000%00:00 (00:00)
263 Super Chibi Knight Jun 24, 2015 $4.99N/A (N/A)20,000 .. 50,0000%00:00 (00:00)
264 Freight Tycoon Inc. Aug 15, 2007 $4.99N/A (N/A)50,000 .. 100,0000%00:00 (00:00)
265 Battleplan: American Civil War Jul 4, 2014 $9.99N/A (N/A/66%)100,000 .. 200,0000%00:00 (00:00)
266 Perimeter May 21, 2004 $3.99N/A (N/A/77%)20,000 .. 50,0000%00:00 (00:00)
267 The Entente Gold Aug 11, 2003 $1.99N/A (N/A)50,000 .. 100,0000%00:00 (00:00)
268 Aggression: Europe Under Fire May 10, 2007 $9.99N/A (N/A)50,000 .. 100,0000%00:00 (00:00)
269 Enemy Mind Jun 6, 2014 $9.99N/A (N/A)100,000 .. 200,0000%00:00 (00:00)
270 Marauder Sep 10, 2009 $9.99N/A (N/A)50,000 .. 100,0000%00:00 (00:00)
271 Shadow Ops: Red Mercury Sep 17, 2004 $6.99N/A (N/A/61%)50,000 .. 100,0000%00:00 (00:00)
272 Collapse Sep 25, 2008 $19.99N/A (N/A)50,000 .. 100,0000%00:00 (00:00)
273 8-Bit Commando Jul 27, 2011 $1.99N/A (N/A)50,000 .. 100,0000%00:00 (00:00)
274 7,62 High Calibre Aug 24, 2007 $0.99N/A (N/A)50,000 .. 100,0000%00:00 (00:00)
275 Rex Rocket Aug 5, 2014 $4.99N/A (N/A)20,000 .. 50,00020%00:03 (00:01)
276 Warlock 2: The Exiled Apr 10, 2014 $19.99N/A (N/A/73%)50,000 .. 100,0000%00:00 (00:00)
277 Story Of the Survivor Feb 17, 2016 $4.99N/A (N/A)50,000 .. 100,0000%00:00 (00:00)
278 A.R.E.S.: Extinction Agenda Jan 20, 2011 $4.99N/A (N/A/68%)50,000 .. 100,0000%00:00 (00:00)
279 1775: Rebellion Sep 29, 2016 $24.99N/A (N/A)0 .. 20,0000%00:00 (00:00)
280 Stellar Impact Apr 12, 2012 $9.99N/A (N/A/74%)50,000 .. 100,0000%00:00 (00:00)
281 DreamBreak Jul 21, 2016 $6.99N/A (N/A/46%)20,000 .. 50,0000%00:00 (00:00)
282 Kohan: Ahriman's Gift Aug 24, 2011 $9.99N/A (N/A/79%)20,000 .. 50,0000%00:00 (00:00)
283 Neon Chrome Apr 28, 2016 $14.99N/A (N/A/74%)0 .. 20,0000%00:00 (00:00)
284 Check vs Mate Aug 16, 2012 $19.99N/A (N/A/69%)0 .. 20,0000%00:00 (00:00)
285 Revenge of Roger Rouge Apr 22, 2016 $2.99N/A (N/A)20,000 .. 50,0000%00:00 (00:00)
286 Kohan II: Kings of War Sep 21, 2004 $9.99N/A (N/A/81%)20,000 .. 50,0000%00:00 (00:00)
287 Earn to Die 2 May 5, 2016 $4.99N/A (N/A)20,000 .. 50,0000%00:00 (00:00)
288 Conflict Desert Storm Sep 13, 2002 $6.99N/A (N/A/56%)50,000 .. 100,0000%00:00 (00:00)
289 Smell Of Death Jul 4, 2016 $9.99N/A (N/A)0 .. 20,0000%00:00 (00:00)
290 Dungeons - The Dark Lord Sep 27, 2011 $19.99N/A (N/A/72%)100,000 .. 200,0000%00:00 (00:00)
291 Phoning Home Feb 7, 2017 $19.99N/A (N/A/61%)20,000 .. 50,0000%00:00 (00:00)
292 Call of Duty: Black Ops - Mac Edition Sep 27, 2012 N/AN/A (N/A)50,000 .. 100,0000%00:00 (00:00)
293 REDCON Apr 22, 2016 $5.99N/A (N/A)50,000 .. 100,0000%00:00 (00:00)
294 Disciples III - Resurrection Oct 11, 2011 $14.99N/A (N/A/63%)100,000 .. 200,0000%00:00 (00:00)
295 Star Realms Mar 8, 2016 FreeN/A (N/A)100,000 .. 200,0000%00:00 (00:00)
296 Painkiller Hell & Damnation Oct 31, 2012 $19.99N/A (N/A/64%)200,000 .. 500,0000%00:00 (00:00)
297 Assault on Arnhem Mar 11, 2016 $9.99N/A (N/A)0 .. 20,0000%00:00 (00:00)
298 Impire Feb 14, 2013 $19.99N/A (N/A/45%)100,000 .. 200,0000%00:00 (00:00)
299 Legends of Callasia Jun 10, 2016 $14.99N/A (N/A)50,000 .. 100,0000%00:00 (00:00)
300 Zeno Clash 2 Apr 30, 2013 $14.99N/A (N/A)200,000 .. 500,0000%00:00 (00:00)
301 Mad Bullets Jun 10, 2016 $2.99N/A (N/A)0 .. 20,0000%00:00 (00:00)
302 Hegemony Gold: Wars of Ancient Greece Mar 30, 2012 $14.99N/A (N/A)20,000 .. 50,0000%00:00 (00:00)
303 Control Craft 2 Feb 15, 2016 $1.99N/A (N/A)20,000 .. 50,0000%00:00 (00:00)
304 Jagged Alliance 2 - Wildfire Mar 8, 2004 $6.99N/A (N/A)500,000 .. 1,000,0000%00:00 (00:00)
305 Magic Quest May 6, 2016 $1.99N/A (N/A)50,000 .. 100,0000%00:00 (00:00)
306 Men of War: Condemned Heroes Apr 12, 2012 $7.99N/A (N/A/57%)100,000 .. 200,0000%00:00 (00:00)
307 Banzai Escape Mar 16, 2016 $5.99N/A (N/A)20,000 .. 50,0000%00:00 (00:00)
308 Fate of the World Feb 28, 2011 $9.99N/A (N/A/70%)50,000 .. 100,0000%00:00 (00:00)
309 Warhammer 40,000: Armageddon - Da Orks Aug 18, 2016 $3.99N/A (N/A)0 .. 20,0000%00:00 (00:00)
310 Tiamat X May 29, 2015 $1.99N/A (N/A)20,000 .. 50,0000%00:00 (00:00)
311 Cultures - 8th Wonder of the World Mar 26, 2015 $0.79N/A (N/A)100,000 .. 200,0000%00:00 (00:00)
312 CRYPTARK Jun 20, 2017 $14.99N/A (N/A/80%)50,000 .. 100,0000%00:00 (00:00)
313 Fort Meow Jun 25, 2015 $7.99N/A (N/A)20,000 .. 50,0000%00:00 (00:00)
314 David. Feb 16, 2015 $1.99N/A (N/A)50,000 .. 100,0000%00:00 (00:00)
315 Fair Strike Feb 5, 2004 $3.99N/A (N/A/56%)0 .. 20,0000%00:00 (00:00)
316 The Bluecoats: North vs South Feb 2, 2015 $4.99N/A (N/A)100,000 .. 200,0000%00:00 (00:00)
317 Spirit of War Mar 12, 2015 $9.99N/A (N/A)20,000 .. 50,0000%00:00 (00:00)
318 Rise & Shine Jan 13, 2017 $14.99N/A (N/A)50,000 .. 100,0000%00:00 (00:00)
319 King of Dragon Pass Jul 28, 2015 $11.99N/A (N/A)20,000 .. 50,0000%00:00 (00:00)
320 BattleLore: Command Mar 31, 2015 $6.99N/A (N/A)0 .. 20,0000%00:00 (00:00)
321 Bombshell Jan 29, 2016 $34.99N/A (N/A/43%)20,000 .. 50,0000%00:00 (00:00)
322 Burstfire Sep 24, 2015 N/AN/A (N/A)50,000 .. 100,0000%00:00 (00:00)
323 Dungeon Warfare Nov 4, 2015 $3.39N/A (N/A)50,000 .. 100,00016.67%01:03 (00:31)
324 Supercharged Robot VULKAISER Jun 4, 2015 $2.49N/A (N/A)20,000 .. 50,0000%00:00 (00:00)
325 Cuban Missile Crisis Mar 25, 2015 $0.74N/A (N/A)20,000 .. 50,0000%00:00 (00:00)
326 Planet of the Eyes Aug 24, 2015 $9.99N/A (N/A/66%)50,000 .. 100,0000%00:00 (00:00)
327 The Fall May 30, 2014 $9.99N/A (N/A/76%)200,000 .. 500,0000%00:00 (00:00)
328 Knightmare Tower Jun 16, 2014 $3.99N/A (N/A)0 .. 20,0000%00:00 (00:00)
329 Royal Defense Nov 6, 2014 $4.99N/A (N/A)100,000 .. 200,0000%00:00 (00:00)
330 Victory At Sea Aug 8, 2014 $24.99N/A (N/A)50,000 .. 100,0000%00:00 (00:00)
331 Smugglers 5 Apr 11, 2014 $9.99N/A (N/A)20,000 .. 50,0000%00:00 (00:00)
332 Orbital Gear Aug 7, 2014 $9.99N/A (N/A/59%)200,000 .. 500,0000%00:00 (00:00)
333 Elliot Quest Nov 10, 2014 $9.99N/A (N/A)20,000 .. 50,0000%00:00 (00:00)
334 Warrior Kings: Battles Sep 30, 2003 $1.99N/A (N/A/64%)20,000 .. 50,0000%00:00 (00:00)
335 Merchants of Kaidan Nov 10, 2014 $14.99N/A (N/A)100,000 .. 200,0000%00:00 (00:00)
336 Rooks Keep Dec 5, 2014 $7.99N/A (N/A)0 .. 20,0000%00:00 (00:00)
337 Brigade E5: New Jagged Union Oct 17, 2006 $0.79N/A (N/A/41%)0 .. 20,0000%00:00 (00:00)
338 The Few Jun 18, 2014 $7.99N/A (N/A)50,000 .. 100,0000%00:00 (00:00)
339 Warrior Kings Apr 13, 2002 $1.99N/A (N/A/73%)20,000 .. 50,0000%00:00 (00:00)
340 Psichodelya Aug 8, 2014 N/AN/A (N/A)50,000 .. 100,0000%00:00 (00:00)
341 Overruled! Sep 15, 2015 $1.94N/A (N/A)20,000 .. 50,0000%00:00 (00:00)
342 Aeon Command Jul 3, 2014 $2.99N/A (N/A)20,000 .. 50,0000%00:00 (00:00)
343 Space Colony: Steam Edition Apr 30, 2015 $14.99N/A (N/A/74%)100,000 .. 200,0000%00:00 (00:00)
344 Anodyne Mar 22, 2013 $9.99N/A (N/A/75%)100,000 .. 200,0000%00:00 (00:00)
345 Mr. Shifty Apr 13, 2017 $14.99N/A (N/A)100,000 .. 200,0000%00:00 (00:00)
346 Arma Tactics Oct 1, 2013 $8.99N/A (N/A/47%)200,000 .. 500,0000%00:00 (00:00)
347 Odd||Even Apr 6, 2016 $0.99N/A (N/A)20,000 .. 50,0000%00:00 (00:00)
348 Eador: Genesis Aug 7, 2009 $5.99N/A (N/A)50,000 .. 100,0000%00:00 (00:00)
349 Quarantine Feb 9, 2017 $9.99N/A (N/A)20,000 .. 50,0000%00:00 (00:00)
350 Rise of Venice Sep 27, 2013 $19.99N/A (N/A/66%)50,000 .. 100,0000%00:00 (00:00)
351 Defend Your Crypt Jul 21, 2016 $2.99N/A (N/A)0 .. 20,0000%00:00 (00:00)
352 Anomaly 2 May 15, 2013 $14.99N/A (N/A/77%)200,000 .. 500,0005.41%02:39 (01:41)
353 Weird Hero Nov 18, 2016 $3.99N/A (N/A)0 .. 20,0000%00:00 (00:00)
354 Sang-Froid - Tales of Werewolves Apr 5, 2013 FreeN/A (N/A/79%)200,000 .. 500,0003.23%00:33 (00:11)
355 Codex of Victory Mar 16, 2017 $14.99N/A (N/A)20,000 .. 50,0000%00:00 (00:00)
356 Battle Worlds: Kronos Nov 4, 2013 $19.99N/A (N/A/71%)20,000 .. 50,0000%00:00 (00:00)
357 Zombie Apocalypse: Escape The Undead City Nov 25, 2013 $1.99N/A (N/A)0 .. 20,0000%00:00 (00:00)
358 Scourge: Outbreak Apr 2, 2014 $5.99N/A (N/A)100,000 .. 200,0000%00:00 (00:00)
359 Purgatory Jun 22, 2016 $0.99N/A (N/A)50,000 .. 100,0000%00:00 (00:00)
360 Fist Puncher Jun 21, 2013 $9.99N/A (N/A/73%)20,000 .. 50,0000%00:00 (00:00)
361 Ballistic Tanks Sep 20, 2016 $4.99N/A (N/A)20,000 .. 50,0000%00:00 (00:00)
362 March of the Eagles Feb 18, 2013 $19.99N/A (N/A/71%)50,000 .. 100,0000%00:00 (00:00)
363 Zombie City Defense 2 Aug 19, 2016 $9.99N/A (N/A)0 .. 20,0000%00:00 (00:00)
364 Citadels Jul 25, 2013 $14.99N/A (N/A/20%)20,000 .. 50,0000%00:00 (00:00)
365 Woodle Tree 2: Worlds Sep 16, 2016 $3.99N/A (N/A)20,000 .. 50,0000%00:00 (00:00)
366 Retrovirus Jan 31, 2013 $9.99N/A (N/A/70%)20,000 .. 50,0000%00:00 (00:00)
367 Slash or Die Jun 3, 2016 $2.99N/A (N/A)20,000 .. 50,0000%00:00 (00:00)
368 Skyward Collapse May 23, 2013 $4.99N/A (N/A/64%)100,000 .. 200,0000%00:00 (00:00)
369 Sorcerer King: Rivals Sep 22, 2016 $19.99N/A (N/A)20,000 .. 50,0000%00:00 (00:00)
370 Skulls of the Shogun Jul 29, 2013 $9.99N/A (N/A/72%)100,000 .. 200,0000%00:00 (00:00)
371 Mad Combat Marines Jul 13, 2016 $0.99N/A (N/A)50,000 .. 100,0000%00:00 (00:00)
372 7 Grand Steps: What Ancients Begat Jun 7, 2013 $19.99N/A (N/A)100,000 .. 200,0000%00:00 (00:00)
373 Extravaganza Rising Jul 21, 2016 N/AN/A (N/A)20,000 .. 50,0000%00:00 (00:00)
374 Armada 2526 Gold Edition Feb 28, 2013 $19.99N/A (N/A/66%)20,000 .. 50,0000%00:00 (00:00)
375 Smithy Jun 3, 2016 $0.99N/A (N/A)20,000 .. 50,0000%00:00 (00:00)
376 Eufloria HD Oct 14, 2014 $14.99N/A (N/A)100,000 .. 200,0000%00:00 (00:00)
377 Bulletstorm: Full Clip Edition Apr 7, 2017 $39.99N/A (N/A/76%)200,000 .. 500,0009.09%00:40 (00:13)

Tags over time:

Access restricted.

This feature is only available to users with special access rights. Sorry.

If you want to proceed, you need to register or log in first and then back Steam Spy on Patreon. Look for Indie or Pro pledge.

Don't forget to use the same email as on Steam Spy!

Owners of this game also own:

Access restricted.

This feature is only available to users with special access rights. Sorry.

If you want to proceed, you need to register or log in first and then back Steam Spy on Patreon. Look for Indie or Pro pledge.

Don't forget to use the same email as on Steam Spy!

Playtime distribution:

Access restricted.

This feature is only available to users with special access rights. Sorry.

If you want to proceed, you need to register or log in first and then back Steam Spy on Patreon. Look for Indie or Pro pledge.

Don't forget to use the same email as on Steam Spy!

Playtime (2 weeks):

Access restricted.

This feature is only available to users with special access rights. Sorry.

If you want to proceed, you need to register or log in first and then back Steam Spy on Patreon. Look for Indie or Pro pledge.

Don't forget to use the same email as on Steam Spy!

User reviews:

Login required.

Please register or log in to see this information.